Terminal Aerodrome Forecast
Issued by NWS Cleveland, OH

Home | Current Version | Previous Version | Graphics & Text | Print | Product List | Glossary On
Versions: 1 2 3 4 5 6 7 8 9 10 11 12 13 14 15
425
FTUS41 KCLE 191720
TAFMFD
TAF
KMFD 191720Z 1918/2018 29011G16KT P6SM SCT035
      TEMPO 1918/1921 BKN035
     FM192100 29010KT P6SM FEW035 SCT150
     FM192300 31006KT P6SM FEW040 FEW250
     FM200100 00000KT P6SM FEW250=

USA.gov is the U.S. government's official web portal to all federal, state and local government web resources and services.